KCSV/CSV METAR and TAF weather

Enter ICAO airport designator
Station Type Date Time Source
KCSV METAR 2021/05/13 06:53 UTC NOAA

KCSV 130653Z AUTO 04005KT 10SM CLR 07/02 A3026 RMK AO2 SLP244 T00670017


Station Type Date Time Source
KCSV Decoded METAR 2021/05/13 06:53 UTC NOAA

CROSSVILLE MEMORIAL AIRPORT , TN, United States (KCSV) 35-57N 85-05W 570M
May 13, 2021 - 02:53 AM EDT / 2021.05.13 0653 UTC
Wind: from the NE (040 degrees) at 6 MPH (5 KT):0
Visibility: 10 mile(s):0
Sky conditions: clear
Temperature: 44.1 F (6.7 C)
Dew Point: 35.1 F (1.7 C)
Relative Humidity: 70%
Pressure (altimeter): 30.26 in. Hg (1024 hPa)
ob: KCSV 130653Z AUTO 04005KT 10SM CLR 07/02 A3026 RMK AO2 SLP244 T00670017
cycle: 7

Station Type Date Time Source
KCSV TAF 2021/05/13 06:36 UTC NOAA

KCSV 130533Z 1306/1406 03004KT P6SM SKC
FM131700 02009KT P6SM SCT070

Example: see airport list